sensor_id;sensor_type;location;lat;lon;timestamp;P1;durP1;ratioP1;P2;durP2;ratioP2
15402;SDS011;7799;53.478;10.170;2023-06-19T00:00:00;2.70;;;2.50;;
15402;SDS011;7799;53.478;10.170;2023-06-19T00:02:37;3.00;;;2.80;;
15402;SDS011;7799;53.478;10.170;2023-06-19T00:05:04;2.73;;;2.53;;
15402;SDS011;7799;53.478;10.170;2023-06-19T00:07:30;3.07;;;2.83;;
15402;SDS011;7799;53.478;10.170;2023-06-19T00:09:57;2.90;;;2.70;;
15402;SDS011;7799;53.478;10.170;2023-06-19T00:12:24;3.53;;;3.33;;
15402;SDS011;7799;53.478;10.170;2023-06-19T00:14:52;3.73;;;3.53;;
15402;SDS011;7799;53.478;10.170;2023-06-19T00:17:18;3.57;;;3.27;;
15402;SDS011;7799;53.478;10.170;2023-06-19T00:19:45;3.13;;;2.93;;
15402;SDS011;7799;53.478;10.170;2023-06-19T00:22:13;3.73;;;3.47;;
15402;SDS011;7799;53.478;10.170;2023-06-19T00:24:40;3.20;;;3.00;;
15402;SDS011;7799;53.478;10.170;2023-06-19T00:27:07;3.17;;;2.87;;
15402;SDS011;7799;53.478;10.170;2023-06-19T00:29:34;4.23;;;3.93;;
15402;SDS011;7799;53.478;10.170;2023-06-19T00:32:02;3.43;;;3.20;;
15402;SDS011;7799;53.478;10.170;2023-06-19T00:34:29;2.90;;;2.70;;
15402;SDS011;7799;53.478;10.170;2023-06-19T00:36:56;3.03;;;2.83;;
15402;SDS011;7799;53.478;10.170;2023-06-19T00:39:23;2.60;;;2.40;;
15402;SDS011;7799;53.478;10.170;2023-06-19T00:41:51;2.20;;;2.10;;
15402;SDS011;7799;53.478;10.170;2023-06-19T00:44:18;2.67;;;2.47;;
15402;SDS011;7799;53.478;10.170;2023-06-19T00:46:45;2.67;;;2.47;;
15402;SDS011;7799;53.478;10.170;2023-06-19T00:49:13;3.10;;;2.90;;
15402;SDS011;7799;53.478;10.170;2023-06-19T00:51:40;3.00;;;2.80;;
15402;SDS011;7799;53.478;10.170;2023-06-19T00:54:07;3.00;;;2.80;;
15402;SDS011;7799;53.478;10.170;2023-06-19T00:56:34;3.80;;;3.50;;
15402;SDS011;7799;53.478;10.170;2023-06-19T00:59:05;3.37;;;3.17;;
15402;SDS011;7799;53.478;10.170;2023-06-19T01:01:35;3.83;;;3.53;;
15402;SDS011;7799;53.478;10.170;2023-06-19T01:04:02;3.67;;;3.37;;
15402;SDS011;7799;53.478;10.170;2023-06-19T01:06:31;3.60;;;3.40;;
15402;SDS011;7799;53.478;10.170;2023-06-19T01:09:04;3.90;;;3.60;;
15402;SDS011;7799;53.478;10.170;2023-06-19T01:11:33;3.30;;;3.10;;
15402;SDS011;7799;53.478;10.170;2023-06-19T01:14:03;3.87;;;3.63;;
15402;SDS011;7799;53.478;10.170;2023-06-19T01:16:32;3.60;;;3.30;;
15402;SDS011;7799;53.478;10.170;2023-06-19T01:19:01;3.77;;;3.47;;
15402;SDS011;7799;53.478;10.170;2023-06-19T01:21:27;3.63;;;3.33;;
15402;SDS011;7799;53.478;10.170;2023-06-19T01:23:57;3.90;;;3.60;;
15402;SDS011;7799;53.478;10.170;2023-06-19T01:26:25;3.43;;;3.13;;
15402;SDS011;7799;53.478;10.170;2023-06-19T01:28:52;3.33;;;3.13;;
15402;SDS011;7799;53.478;10.170;2023-06-19T01:31:20;4.40;;;4.00;;
15402;SDS011;7799;53.478;10.170;2023-06-19T01:33:48;4.30;;;4.00;;
15402;SDS011;7799;53.478;10.170;2023-06-19T01:36:16;4.30;;;4.00;;
15402;SDS011;7799;53.478;10.170;2023-06-19T01:38:43;4.00;;;3.67;;
15402;SDS011;7799;53.478;10.170;2023-06-19T01:41:12;3.47;;;3.17;;
15402;SDS011;7799;53.478;10.170;2023-06-19T01:43:41;4.27;;;3.90;;
15402;SDS011;7799;53.478;10.170;2023-06-19T01:46:08;3.73;;;3.43;;
15402;SDS011;7799;53.478;10.170;2023-06-19T01:48:35;3.40;;;3.20;;
15402;SDS011;7799;53.478;10.170;2023-06-19T01:51:01;3.37;;;3.07;;
15402;SDS011;7799;53.478;10.170;2023-06-19T01:53:30;3.50;;;3.20;;
15402;SDS011;7799;53.478;10.170;2023-06-19T01:55:56;3.00;;;2.80;;
15402;SDS011;7799;53.478;10.170;2023-06-19T01:58:24;3.10;;;2.90;;
15402;SDS011;7799;53.478;10.170;2023-06-19T02:00:51;2.60;;;2.40;;
15402;SDS011;7799;53.478;10.170;2023-06-19T02:03:18;2.47;;;2.27;;
15402;SDS011;7799;53.478;10.170;2023-06-19T02:05:44;3.37;;;3.07;;
15402;SDS011;7799;53.478;10.170;2023-06-19T02:08:11;3.23;;;3.03;;
15402;SDS011;7799;53.478;10.170;2023-06-19T02:10:38;3.80;;;3.50;;
15402;SDS011;7799;53.478;10.170;2023-06-19T02:13:04;3.00;;;2.80;;
15402;SDS011;7799;53.478;10.170;2023-06-19T02:15:32;3.37;;;3.10;;
15402;SDS011;7799;53.478;10.170;2023-06-19T02:17:59;3.50;;;3.30;;
15402;SDS011;7799;53.478;10.170;2023-06-19T02:20:26;3.33;;;3.13;;
15402;SDS011;7799;53.478;10.170;2023-06-19T02:22:55;3.30;;;3.10;;
15402;SDS011;7799;53.478;10.170;2023-06-19T02:25:21;3.40;;;3.13;;
15402;SDS011;7799;53.478;10.170;2023-06-19T02:27:48;3.60;;;3.40;;
15402;SDS011;7799;53.478;10.170;2023-06-19T02:30:15;3.30;;;3.10;;
15402;SDS011;7799;53.478;10.170;2023-06-19T02:32:43;3.70;;;3.47;;
15402;SDS011;7799;53.478;10.170;2023-06-19T02:35:10;3.73;;;3.43;;
15402;SDS011;7799;53.478;10.170;2023-06-19T02:37:37;3.50;;;3.30;;
15402;SDS011;7799;53.478;10.170;2023-06-19T02:40:06;4.23;;;3.93;;
15402;SDS011;7799;53.478;10.170;2023-06-19T02:42:34;3.80;;;3.50;;
15402;SDS011;7799;53.478;10.170;2023-06-19T02:45:01;4.27;;;3.97;;
15402;SDS011;7799;53.478;10.170;2023-06-19T02:47:29;4.10;;;3.80;;
15402;SDS011;7799;53.478;10.170;2023-06-19T02:49:58;4.33;;;4.03;;
15402;SDS011;7799;53.478;10.170;2023-06-19T02:52:26;4.87;;;4.47;;
15402;SDS011;7799;53.478;10.170;2023-06-19T02:54:53;4.87;;;4.47;;
15402;SDS011;7799;53.478;10.170;2023-06-19T02:57:20;5.27;;;4.87;;
15402;SDS011;7799;53.478;10.170;2023-06-19T02:59:46;5.53;;;5.13;;
15402;SDS011;7799;53.478;10.170;2023-06-19T03:02:13;5.03;;;4.67;;
15402;SDS011;7799;53.478;10.170;2023-06-19T03:04:42;4.27;;;3.97;;
15402;SDS011;7799;53.478;10.170;2023-06-19T03:07:10;4.50;;;4.20;;
15402;SDS011;7799;53.478;10.170;2023-06-19T03:09:38;4.40;;;4.10;;
15402;SDS011;7799;53.478;10.170;2023-06-19T03:12:06;4.50;;;4.10;;
15402;SDS011;7799;53.478;10.170;2023-06-19T03:14:33;5.27;;;4.87;;
15402;SDS011;7799;53.478;10.170;2023-06-19T03:17:00;4.70;;;4.30;;
15402;SDS011;7799;53.478;10.170;2023-06-19T03:19:28;4.63;;;4.23;;
15402;SDS011;7799;53.478;10.170;2023-06-19T03:21:54;4.07;;;3.77;;
15402;SDS011;7799;53.478;10.170;2023-06-19T03:24:22;3.90;;;3.60;;
15402;SDS011;7799;53.478;10.170;2023-06-19T03:26:52;3.60;;;3.40;;
15402;SDS011;7799;53.478;10.170;2023-06-19T03:29:19;3.70;;;3.47;;
15402;SDS011;7799;53.478;10.170;2023-06-19T03:31:54;4.70;;;4.30;;
15402;SDS011;7799;53.478;10.170;2023-06-19T03:34:25;4.83;;;4.43;;
15402;SDS011;7799;53.478;10.170;2023-06-19T03:36:51;5.17;;;4.77;;
15402;SDS011;7799;53.478;10.170;2023-06-19T03:39:21;4.70;;;4.40;;
15402;SDS011;7799;53.478;10.170;2023-06-19T03:41:49;5.53;;;5.10;;
15402;SDS011;7799;53.478;10.170;2023-06-19T03:44:16;4.93;;;4.50;;
15402;SDS011;7799;53.478;10.170;2023-06-19T03:46:43;4.20;;;3.90;;
15402;SDS011;7799;53.478;10.170;2023-06-19T03:49:11;3.97;;;3.67;;
15402;SDS011;7799;53.478;10.170;2023-06-19T03:51:38;4.50;;;4.17;;
15402;SDS011;7799;53.478;10.170;2023-06-19T03:54:05;4.70;;;4.40;;
15402;SDS011;7799;53.478;10.170;2023-06-19T03:56:34;4.70;;;4.30;;
15402;SDS011;7799;53.478;10.170;2023-06-19T03:59:00;5.73;;;5.23;;
15402;SDS011;7799;53.478;10.170;2023-06-19T04:01:27;4.80;;;4.40;;
15402;SDS011;7799;53.478;10.170;2023-06-19T04:03:54;4.83;;;4.53;;
15402;SDS011;7799;53.478;10.170;2023-06-19T04:06:21;4.47;;;4.07;;
15402;SDS011;7799;53.478;10.170;2023-06-19T04:08:48;4.00;;;3.70;;
15402;SDS011;7799;53.478;10.170;2023-06-19T04:11:15;3.90;;;3.60;;
15402;SDS011;7799;53.478;10.170;2023-06-19T04:13:45;4.10;;;3.80;;
15402;SDS011;7799;53.478;10.170;2023-06-19T04:16:12;3.80;;;3.50;;
15402;SDS011;7799;53.478;10.170;2023-06-19T04:18:38;4.60;;;4.30;;
15402;SDS011;7799;53.478;10.170;2023-06-19T04:21:05;5.33;;;4.93;;
15402;SDS011;7799;53.478;10.170;2023-06-19T04:23:32;5.53;;;5.13;;
15402;SDS011;7799;53.478;10.170;2023-06-19T04:25:59;5.70;;;5.30;;
15402;SDS011;7799;53.478;10.170;2023-06-19T04:28:25;5.67;;;5.20;;
15402;SDS011;7799;53.478;10.170;2023-06-19T04:30:53;5.90;;;5.50;;
15402;SDS011;7799;53.478;10.170;2023-06-19T04:33:25;5.90;;;5.30;;
15402;SDS011;7799;53.478;10.170;2023-06-19T04:35:51;6.40;;;5.90;;
15402;SDS011;7799;53.478;10.170;2023-06-19T04:38:18;6.40;;;5.90;;
15402;SDS011;7799;53.478;10.170;2023-06-19T04:40:48;6.20;;;5.70;;
15402;SDS011;7799;53.478;10.170;2023-06-19T04:43:15;6.07;;;5.57;;
15402;SDS011;7799;53.478;10.170;2023-06-19T04:45:42;6.03;;;5.53;;
15402;SDS011;7799;53.478;10.170;2023-06-19T04:48:10;6.20;;;5.70;;
15402;SDS011;7799;53.478;10.170;2023-06-19T04:50:37;6.27;;;5.77;;
15402;SDS011;7799;53.478;10.170;2023-06-19T04:53:03;6.00;;;5.60;;
15402;SDS011;7799;53.478;10.170;2023-06-19T04:55:30;6.60;;;6.10;;
15402;SDS011;7799;53.478;10.170;2023-06-19T04:57:57;6.77;;;6.17;;
15402;SDS011;7799;53.478;10.170;2023-06-19T05:00:24;6.30;;;5.80;;
15402;SDS011;7799;53.478;10.170;2023-06-19T05:02:50;5.97;;;5.47;;
15402;SDS011;7799;53.478;10.170;2023-06-19T05:05:18;5.90;;;5.40;;
15402;SDS011;7799;53.478;10.170;2023-06-19T05:07:45;5.63;;;5.23;;
15402;SDS011;7799;53.478;10.170;2023-06-19T05:10:12;6.27;;;5.70;;
15402;SDS011;7799;53.478;10.170;2023-06-19T05:12:38;5.90;;;5.40;;
15402;SDS011;7799;53.478;10.170;2023-06-19T05:15:05;6.20;;;5.70;;
15402;SDS011;7799;53.478;10.170;2023-06-19T05:17:33;6.00;;;5.50;;
15402;SDS011;7799;53.478;10.170;2023-06-19T05:20:00;6.63;;;6.13;;
15402;SDS011;7799;53.478;10.170;2023-06-19T05:22:28;6.60;;;6.10;;
15402;SDS011;7799;53.478;10.170;2023-06-19T05:24:56;6.70;;;6.20;;
15402;SDS011;7799;53.478;10.170;2023-06-19T05:27:23;6.63;;;6.13;;
15402;SDS011;7799;53.478;10.170;2023-06-19T05:29:49;6.90;;;6.40;;
15402;SDS011;7799;53.478;10.170;2023-06-19T05:32:16;6.80;;;6.30;;
15402;SDS011;7799;53.478;10.170;2023-06-19T05:34:43;6.10;;;5.70;;
15402;SDS011;7799;53.478;10.170;2023-06-19T05:37:09;6.60;;;6.10;;
15402;SDS011;7799;53.478;10.170;2023-06-19T05:39:37;6.87;;;6.37;;
15402;SDS011;7799;53.478;10.170;2023-06-19T05:42:04;7.30;;;6.70;;
15402;SDS011;7799;53.478;10.170;2023-06-19T05:44:31;7.33;;;6.73;;
15402;SDS011;7799;53.478;10.170;2023-06-19T05:46:58;7.13;;;6.53;;
15402;SDS011;7799;53.478;10.170;2023-06-19T05:49:25;6.07;;;5.67;;
15402;SDS011;7799;53.478;10.170;2023-06-19T05:51:51;6.23;;;5.83;;
15402;SDS011;7799;53.478;10.170;2023-06-19T05:54:18;6.00;;;5.60;;
15402;SDS011;7799;53.478;10.170;2023-06-19T05:56:46;5.87;;;5.40;;
15402;SDS011;7799;53.478;10.170;2023-06-19T05:59:15;5.50;;;5.10;;
15402;SDS011;7799;53.478;10.170;2023-06-19T06:01:42;4.80;;;4.50;;
15402;SDS011;7799;53.478;10.170;2023-06-19T06:04:09;5.47;;;5.07;;
15402;SDS011;7799;53.478;10.170;2023-06-19T06:06:35;6.03;;;5.63;;
15402;SDS011;7799;53.478;10.170;2023-06-19T06:09:02;5.60;;;5.20;;
15402;SDS011;7799;53.478;10.170;2023-06-19T06:11:29;5.33;;;4.93;;
15402;SDS011;7799;53.478;10.170;2023-06-19T06:13:57;5.50;;;5.10;;
15402;SDS011;7799;53.478;10.170;2023-06-19T06:16:24;6.27;;;5.80;;
15402;SDS011;7799;53.478;10.170;2023-06-19T06:18:50;6.43;;;5.87;;
15402;SDS011;7799;53.478;10.170;2023-06-19T06:21:17;5.87;;;5.40;;
15402;SDS011;7799;53.478;10.170;2023-06-19T06:23:44;6.80;;;6.30;;
15402;SDS011;7799;53.478;10.170;2023-06-19T06:26:12;6.70;;;6.20;;
15402;SDS011;7799;53.478;10.170;2023-06-19T06:28:39;7.27;;;6.67;;
15402;SDS011;7799;53.478;10.170;2023-06-19T06:31:07;6.60;;;6.10;;
15402;SDS011;7799;53.478;10.170;2023-06-19T06:33:34;6.57;;;6.10;;
15402;SDS011;7799;53.478;10.170;2023-06-19T06:36:01;7.43;;;6.80;;
15402;SDS011;7799;53.478;10.170;2023-06-19T06:38:27;8.17;;;7.57;;
15402;SDS011;7799;53.478;10.170;2023-06-19T06:40:54;8.67;;;7.97;;
15402;SDS011;7799;53.478;10.170;2023-06-19T06:43:21;8.13;;;7.43;;
15402;SDS011;7799;53.478;10.170;2023-06-19T06:45:48;7.93;;;7.37;;
15402;SDS011;7799;53.478;10.170;2023-06-19T06:48:16;7.83;;;7.33;;
15402;SDS011;7799;53.478;10.170;2023-06-19T06:50:42;7.73;;;7.13;;
15402;SDS011;7799;53.478;10.170;2023-06-19T06:53:09;8.33;;;7.67;;
15402;SDS011;7799;53.478;10.170;2023-06-19T06:55:36;7.70;;;7.10;;
15402;SDS011;7799;53.478;10.170;2023-06-19T06:58:02;8.47;;;7.83;;
15402;SDS011;7799;53.478;10.170;2023-06-19T07:00:30;7.63;;;7.03;;
15402;SDS011;7799;53.478;10.170;2023-06-19T07:02:57;7.80;;;7.20;;
15402;SDS011;7799;53.478;10.170;2023-06-19T07:05:25;8.30;;;7.60;;
15402;SDS011;7799;53.478;10.170;2023-06-19T07:07:51;8.70;;;8.10;;
15402;SDS011;7799;53.478;10.170;2023-06-19T07:10:18;7.83;;;7.23;;
15402;SDS011;7799;53.478;10.170;2023-06-19T07:12:45;7.50;;;6.90;;
15402;SDS011;7799;53.478;10.170;2023-06-19T07:15:12;6.37;;;5.87;;
15402;SDS011;7799;53.478;10.170;2023-06-19T07:17:39;6.70;;;6.20;;
15402;SDS011;7799;53.478;10.170;2023-06-19T07:20:06;6.23;;;5.73;;
15402;SDS011;7799;53.478;10.170;2023-06-19T07:22:35;7.03;;;6.53;;
15402;SDS011;7799;53.478;10.170;2023-06-19T07:25:01;8.13;;;7.53;;
15402;SDS011;7799;53.478;10.170;2023-06-19T07:27:29;7.97;;;7.37;;
15402;SDS011;7799;53.478;10.170;2023-06-19T07:29:55;7.50;;;6.90;;
15402;SDS011;7799;53.478;10.170;2023-06-19T07:32:22;7.23;;;6.73;;
15402;SDS011;7799;53.478;10.170;2023-06-19T07:34:49;7.57;;;6.97;;
15402;SDS011;7799;53.478;10.170;2023-06-19T07:37:15;6.80;;;6.30;;
15402;SDS011;7799;53.478;10.170;2023-06-19T07:39:45;7.20;;;6.63;;
15402;SDS011;7799;53.478;10.170;2023-06-19T07:42:12;6.60;;;6.10;;
15402;SDS011;7799;53.478;10.170;2023-06-19T07:44:39;6.73;;;6.23;;
15402;SDS011;7799;53.478;10.170;2023-06-19T07:47:06;6.80;;;6.30;;
15402;SDS011;7799;53.478;10.170;2023-06-19T07:49:32;7.10;;;6.50;;
15402;SDS011;7799;53.478;10.170;2023-06-19T07:51:59;7.37;;;6.77;;
15402;SDS011;7799;53.478;10.170;2023-06-19T07:54:26;7.30;;;6.70;;
15402;SDS011;7799;53.478;10.170;2023-06-19T07:56:54;6.83;;;6.33;;
15402;SDS011;7799;53.478;10.170;2023-06-19T07:59:21;6.40;;;5.90;;
15402;SDS011;7799;53.478;10.170;2023-06-19T08:01:48;6.57;;;6.07;;
15402;SDS011;7799;53.478;10.170;2023-06-19T08:04:15;7.03;;;6.53;;
15402;SDS011;7799;53.478;10.170;2023-06-19T08:06:41;8.37;;;7.77;;
15402;SDS011;7799;53.478;10.170;2023-06-19T08:09:08;8.43;;;7.77;;
15402;SDS011;7799;53.478;10.170;2023-06-19T08:11:35;6.90;;;6.40;;
15402;SDS011;7799;53.478;10.170;2023-06-19T08:14:03;7.73;;;7.20;;
15402;SDS011;7799;53.478;10.170;2023-06-19T08:16:30;8.50;;;7.80;;
15402;SDS011;7799;53.478;10.170;2023-06-19T08:18:57;9.77;;;8.97;;
15402;SDS011;7799;53.478;10.170;2023-06-19T08:21:23;8.73;;;8.13;;
15402;SDS011;7799;53.478;10.170;2023-06-19T08:23:50;8.10;;;7.50;;
15402;SDS011;7799;53.478;10.170;2023-06-19T08:26:17;7.70;;;7.20;;
15402;SDS011;7799;53.478;10.170;2023-06-19T08:28:44;7.77;;;7.17;;
15402;SDS011;7799;53.478;10.170;2023-06-19T08:31:12;8.37;;;7.67;;
15402;SDS011;7799;53.478;10.170;2023-06-19T08:33:38;6.80;;;6.30;;
15402;SDS011;7799;53.478;10.170;2023-06-19T08:36:05;7.60;;;7.10;;
15402;SDS011;7799;53.478;10.170;2023-06-19T08:38:32;8.83;;;8.13;;
15402;SDS011;7799;53.478;10.170;2023-06-19T08:40:58;8.73;;;8.13;;
15402;SDS011;7799;53.478;10.170;2023-06-19T08:43:25;9.27;;;8.47;;
15402;SDS011;7799;53.478;10.170;2023-06-19T08:45:52;7.13;;;6.63;;
15402;SDS011;7799;53.478;10.170;2023-06-19T08:48:23;8.13;;;7.53;;
15402;SDS011;7799;53.478;10.170;2023-06-19T08:50:50;7.73;;;7.13;;
15402;SDS011;7799;53.478;10.170;2023-06-19T08:53:17;7.60;;;7.10;;
15402;SDS011;7799;53.478;10.170;2023-06-19T08:55:43;7.53;;;6.93;;
15402;SDS011;7799;53.478;10.170;2023-06-19T08:58:10;7.03;;;6.53;;
15402;SDS011;7799;53.478;10.170;2023-06-19T09:00:37;7.30;;;6.80;;
15402;SDS011;7799;53.478;10.170;2023-06-19T09:03:04;6.20;;;5.70;;
15402;SDS011;7799;53.478;10.170;2023-06-19T09:05:32;7.90;;;7.27;;
15402;SDS011;7799;53.478;10.170;2023-06-19T09:07:59;7.60;;;7.00;;
15402;SDS011;7799;53.478;10.170;2023-06-19T09:10:29;7.53;;;7.03;;
15402;SDS011;7799;53.478;10.170;2023-06-19T09:12:56;7.33;;;6.73;;
15402;SDS011;7799;53.478;10.170;2023-06-19T09:15:26;7.13;;;6.63;;
15402;SDS011;7799;53.478;10.170;2023-06-19T09:20:40;7.17;;;6.67;;
15402;SDS011;7799;53.478;10.170;2023-06-19T09:23:09;8.48;;;7.82;;
15402;SDS011;7799;53.478;10.170;2023-06-19T09:25:43;7.78;;;7.18;;
15402;SDS011;7799;53.478;10.170;2023-06-19T09:28:16;7.97;;;7.38;;
15402;SDS011;7799;53.478;10.170;2023-06-19T09:30:50;7.88;;;7.28;;
15402;SDS011;7799;53.478;10.170;2023-06-19T09:33:18;7.53;;;6.93;;
15402;SDS011;7799;53.478;10.170;2023-06-19T09:35:47;7.88;;;7.28;;
15402;SDS011;7799;53.478;10.170;2023-06-19T09:38:13;7.25;;;6.75;;
15402;SDS011;7799;53.478;10.170;2023-06-19T09:40:42;8.07;;;7.47;;
15402;SDS011;7799;53.478;10.170;2023-06-19T09:43:09;7.97;;;7.38;;
15402;SDS011;7799;53.478;10.170;2023-06-19T09:45:36;7.30;;;6.75;;
15402;SDS011;7799;53.478;10.170;2023-06-19T09:48:03;7.60;;;6.97;;
15402;SDS011;7799;53.478;10.170;2023-06-19T09:50:50;7.65;;;7.05;;
15402;SDS011;7799;53.478;10.170;2023-06-19T09:53:18;7.35;;;6.85;;
15402;SDS011;7799;53.478;10.170;2023-06-19T09:55:46;7.07;;;6.57;;
15402;SDS011;7799;53.478;10.170;2023-06-19T09:58:15;6.40;;;6.00;;
15402;SDS011;7799;53.478;10.170;2023-06-19T10:00:42;6.90;;;6.40;;
15402;SDS011;7799;53.478;10.170;2023-06-19T10:03:11;7.47;;;6.97;;
15402;SDS011;7799;53.478;10.170;2023-06-19T10:05:38;6.35;;;5.90;;
15402;SDS011;7799;53.478;10.170;2023-06-19T10:08:06;7.90;;;7.25;;
15402;SDS011;7799;53.478;10.170;2023-06-19T10:10:33;6.70;;;6.07;;
15402;SDS011;7799;53.478;10.170;2023-06-19T10:13:10;7.47;;;6.97;;
15402;SDS011;7799;53.478;10.170;2023-06-19T10:15:40;7.43;;;6.82;;
15402;SDS011;7799;53.478;10.170;2023-06-19T10:18:07;7.57;;;6.97;;
15402;SDS011;7799;53.478;10.170;2023-06-19T10:20:34;6.72;;;6.22;;
15402;SDS011;7799;53.478;10.170;2023-06-19T10:23:03;7.03;;;6.53;;
15402;SDS011;7799;53.478;10.170;2023-06-19T10:25:33;7.40;;;6.82;;
15402;SDS011;7799;53.478;10.170;2023-06-19T10:28:01;7.10;;;6.60;;
15402;SDS011;7799;53.478;10.170;2023-06-19T10:30:31;6.30;;;5.90;;
15402;SDS011;7799;53.478;10.170;2023-06-19T10:32:59;6.43;;;6.03;;
15402;SDS011;7799;53.478;10.170;2023-06-19T10:35:29;7.50;;;7.00;;
15402;SDS011;7799;53.478;10.170;2023-06-19T10:37:55;7.53;;;6.93;;
15402;SDS011;7799;53.478;10.170;2023-06-19T10:40:22;8.20;;;7.55;;
15402;SDS011;7799;53.478;10.170;2023-06-19T10:42:50;7.35;;;6.75;;
15402;SDS011;7799;53.478;10.170;2023-06-19T10:45:17;7.88;;;7.22;;
15402;SDS011;7799;53.478;10.170;2023-06-19T10:47:45;6.72;;;6.25;;
15402;SDS011;7799;53.478;10.170;2023-06-19T10:50:12;5.80;;;5.40;;
15402;SDS011;7799;53.478;10.170;2023-06-19T10:52:39;6.20;;;5.80;;
15402;SDS011;7799;53.478;10.170;2023-06-19T10:55:08;7.18;;;6.55;;
15402;SDS011;7799;53.478;10.170;2023-06-19T10:57:35;7.45;;;6.90;;
15402;SDS011;7799;53.478;10.170;2023-06-19T11:00:04;7.95;;;7.38;;
15402;SDS011;7799;53.478;10.170;2023-06-19T11:02:36;7.40;;;6.82;;
15402;SDS011;7799;53.478;10.170;2023-06-19T11:05:05;7.22;;;6.65;;
15402;SDS011;7799;53.478;10.170;2023-06-19T11:07:32;7.38;;;6.88;;
15402;SDS011;7799;53.478;10.170;2023-06-19T11:09:59;7.40;;;6.75;;
15402;SDS011;7799;53.478;10.170;2023-06-19T11:12:25;7.07;;;6.57;;
15402;SDS011;7799;53.478;10.170;2023-06-19T11:14:52;7.03;;;6.53;;
15402;SDS011;7799;53.478;10.170;2023-06-19T11:17:20;6.68;;;6.18;;
15402;SDS011;7799;53.478;10.170;2023-06-19T11:19:49;6.55;;;6.15;;
15402;SDS011;7799;53.478;10.170;2023-06-19T11:22:16;6.30;;;5.90;;
15402;SDS011;7799;53.478;10.170;2023-06-19T11:24:43;6.30;;;5.90;;
15402;SDS011;7799;53.478;10.170;2023-06-19T11:27:15;6.25;;;5.85;;
15402;SDS011;7799;53.478;10.170;2023-06-19T11:29:43;5.75;;;5.25;;
15402;SDS011;7799;53.478;10.170;2023-06-19T11:32:12;5.63;;;5.22;;
15402;SDS011;7799;53.478;10.170;2023-06-19T11:34:40;6.97;;;6.47;;
15402;SDS011;7799;53.478;10.170;2023-06-19T11:37:12;7.03;;;6.47;;
15402;SDS011;7799;53.478;10.170;2023-06-19T11:39:39;7.72;;;7.00;;
15402;SDS011;7799;53.478;10.170;2023-06-19T11:42:07;7.30;;;6.70;;
15402;SDS011;7799;53.478;10.170;2023-06-19T11:44:34;6.70;;;6.10;;
15402;SDS011;7799;53.478;10.170;2023-06-19T11:47:00;5.93;;;5.55;;
15402;SDS011;7799;53.478;10.170;2023-06-19T11:49:27;6.28;;;5.88;;
15402;SDS011;7799;53.478;10.170;2023-06-19T11:51:59;6.13;;;5.63;;
15402;SDS011;7799;53.478;10.170;2023-06-19T11:54:25;4.95;;;4.65;;
15402;SDS011;7799;53.478;10.170;2023-06-19T11:56:52;4.70;;;4.40;;
15402;SDS011;7799;53.478;10.170;2023-06-19T11:59:19;4.78;;;4.47;;
15402;SDS011;7799;53.478;10.170;2023-06-19T12:01:45;5.72;;;5.43;;
15402;SDS011;7799;53.478;10.170;2023-06-19T12:04:12;5.68;;;5.28;;
15402;SDS011;7799;53.478;10.170;2023-06-19T12:06:40;4.72;;;4.43;;
15402;SDS011;7799;53.478;10.170;2023-06-19T12:09:08;4.72;;;4.43;;
15402;SDS011;7799;53.478;10.170;2023-06-19T12:11:36;4.05;;;3.75;;
15402;SDS011;7799;53.478;10.170;2023-06-19T12:14:03;4.00;;;3.80;;
15402;SDS011;7799;53.478;10.170;2023-06-19T12:16:30;3.88;;;3.67;;
15402;SDS011;7799;53.478;10.170;2023-06-19T12:18:56;4.32;;;4.03;;
15402;SDS011;7799;53.478;10.170;2023-06-19T12:21:23;4.13;;;3.83;;
15402;SDS011;7799;53.478;10.170;2023-06-19T12:23:50;4.13;;;3.83;;
15402;SDS011;7799;53.478;10.170;2023-06-19T12:26:18;3.70;;;3.40;;
15402;SDS011;7799;53.478;10.170;2023-06-19T12:28:45;3.35;;;3.15;;
15402;SDS011;7799;53.478;10.170;2023-06-19T12:31:12;3.83;;;3.53;;
15402;SDS011;7799;53.478;10.170;2023-06-19T12:33:38;3.63;;;3.42;;
15402;SDS011;7799;53.478;10.170;2023-06-19T12:36:09;3.78;;;3.13;;
15402;SDS011;7799;53.478;10.170;2023-06-19T12:38:37;3.00;;;2.80;;
15402;SDS011;7799;53.478;10.170;2023-06-19T12:41:04;2.80;;;2.70;;
15402;SDS011;7799;53.478;10.170;2023-06-19T12:43:32;3.30;;;3.10;;
15402;SDS011;7799;53.478;10.170;2023-06-19T12:45:59;3.40;;;3.20;;
15402;SDS011;7799;53.478;10.170;2023-06-19T12:48:26;3.22;;;3.03;;
15402;SDS011;7799;53.478;10.170;2023-06-19T12:50:53;2.55;;;2.45;;
15402;SDS011;7799;53.478;10.170;2023-06-19T12:53:19;3.20;;;3.00;;
15402;SDS011;7799;53.478;10.170;2023-06-19T12:55:48;3.10;;;2.90;;
15402;SDS011;7799;53.478;10.170;2023-06-19T12:58:14;3.22;;;3.03;;
15402;SDS011;7799;53.478;10.170;2023-06-19T13:00:42;3.25;;;3.05;;
15402;SDS011;7799;53.478;10.170;2023-06-19T13:03:09;3.58;;;3.22;;
15402;SDS011;7799;53.478;10.170;2023-06-19T13:05:35;3.33;;;3.13;;
15402;SDS011;7799;53.478;10.170;2023-06-19T13:08:02;3.65;;;3.35;;
15402;SDS011;7799;53.478;10.170;2023-06-19T13:10:29;3.38;;;3.17;;
15402;SDS011;7799;53.478;10.170;2023-06-19T13:12:55;3.33;;;3.13;;
15402;SDS011;7799;53.478;10.170;2023-06-19T13:15:23;3.22;;;3.03;;
15402;SDS011;7799;53.478;10.170;2023-06-19T13:17:51;2.72;;;2.63;;
15402;SDS011;7799;53.478;10.170;2023-06-19T13:20:18;3.20;;;3.00;;
15402;SDS011;7799;53.478;10.170;2023-06-19T13:22:44;3.05;;;2.85;;
15402;SDS011;7799;53.478;10.170;2023-06-19T13:25:11;2.58;;;2.47;;
15402;SDS011;7799;53.478;10.170;2023-06-19T13:27:37;2.92;;;2.72;;
15402;SDS011;7799;53.478;10.170;2023-06-19T13:30:05;2.65;;;2.50;;
15402;SDS011;7799;53.478;10.170;2023-06-19T13:32:32;2.20;;;2.10;;
15402;SDS011;7799;53.478;10.170;2023-06-19T13:35:00;2.08;;;1.98;;
15402;SDS011;7799;53.478;10.170;2023-06-19T13:37:27;2.15;;;2.05;;
15402;SDS011;7799;53.478;10.170;2023-06-19T13:39:55;1.85;;;1.75;;
15402;SDS011;7799;53.478;10.170;2023-06-19T13:42:22;2.10;;;2.00;;
15402;SDS011;7799;53.478;10.170;2023-06-19T13:44:48;2.35;;;2.10;;
15402;SDS011;7799;53.478;10.170;2023-06-19T13:47:15;2.13;;;2.03;;
15402;SDS011;7799;53.478;10.170;2023-06-19T13:49:42;2.00;;;1.90;;
15402;SDS011;7799;53.478;10.170;2023-06-19T13:52:10;2.03;;;1.92;;
15402;SDS011;7799;53.478;10.170;2023-06-19T13:54:37;1.98;;;1.65;;
15402;SDS011;7799;53.478;10.170;2023-06-19T13:57:04;2.30;;;2.20;;
15402;SDS011;7799;53.478;10.170;2023-06-19T13:59:31;2.30;;;2.20;;
15402;SDS011;7799;53.478;10.170;2023-06-19T14:01:58;2.50;;;2.30;;
15402;SDS011;7799;53.478;10.170;2023-06-19T14:04:24;2.40;;;2.08;;
15402;SDS011;7799;53.478;10.170;2023-06-19T14:06:51;2.20;;;2.10;;
15402;SDS011;7799;53.478;10.170;2023-06-19T14:09:21;2.45;;;2.35;;
15402;SDS011;7799;53.478;10.170;2023-06-19T14:11:48;2.75;;;2.58;;
15402;SDS011;7799;53.478;10.170;2023-06-19T14:14:14;2.60;;;2.40;;
15402;SDS011;7799;53.478;10.170;2023-06-19T14:16:41;2.65;;;2.45;;
15402;SDS011;7799;53.478;10.170;2023-06-19T14:19:08;2.45;;;2.25;;
15402;SDS011;7799;53.478;10.170;2023-06-19T14:21:34;2.58;;;2.38;;
15402;SDS011;7799;53.478;10.170;2023-06-19T14:24:01;2.30;;;2.20;;
15402;SDS011;7799;53.478;10.170;2023-06-19T14:26:29;2.65;;;2.45;;
15402;SDS011;7799;53.478;10.170;2023-06-19T14:28:56;3.10;;;2.90;;
15402;SDS011;7799;53.478;10.170;2023-06-19T14:31:24;2.30;;;2.20;;
15402;SDS011;7799;53.478;10.170;2023-06-19T14:33:51;2.40;;;2.30;;
15402;SDS011;7799;53.478;10.170;2023-06-19T14:36:17;2.30;;;2.10;;
15402;SDS011;7799;53.478;10.170;2023-06-19T14:38:44;2.05;;;1.95;;
15402;SDS011;7799;53.478;10.170;2023-06-19T14:41:10;2.08;;;1.98;;
15402;SDS011;7799;53.478;10.170;2023-06-19T14:43:38;2.40;;;2.30;;
15402;SDS011;7799;53.478;10.170;2023-06-19T14:46:05;2.40;;;2.30;;
15402;SDS011;7799;53.478;10.170;2023-06-19T14:48:32;2.38;;;2.28;;
15402;SDS011;7799;53.478;10.170;2023-06-19T14:50:58;3.00;;;2.70;;